createdAt,value
2018-03-19T00:02:07.786Z,85.00
2018-03-19T00:04:37.503Z,84.50
2018-03-19T00:07:06.973Z,80.73
2018-03-19T00:09:36.289Z,72.50
2018-03-19T00:12:05.626Z,88.13
2018-03-19T00:14:35.076Z,81.33
2018-03-19T00:17:04.414Z,75.57
2018-03-19T00:19:34.591Z,90.83
2018-03-19T00:22:04.588Z,89.57
2018-03-19T00:24:33.936Z,89.43
2018-03-19T00:27:05.565Z,99.30
2018-03-19T00:29:35.338Z,99.80
2018-03-19T00:32:04.816Z,98.37
2018-03-19T00:34:34.970Z,102.10
2018-03-19T00:37:05.264Z,98.27
2018-03-19T00:39:34.727Z,102.43
2018-03-19T00:42:04.850Z,104.33
2018-03-19T00:44:34.407Z,100.53
2018-03-19T00:47:04.017Z,97.93
2018-03-19T00:49:34.473Z,90.80
2018-03-19T00:52:04.362Z,90.93
2018-03-19T00:54:34.765Z,95.13
2018-03-19T00:57:04.368Z,89.17
2018-03-19T00:59:33.756Z,94.60
2018-03-19T01:02:03.951Z,106.20
2018-03-19T01:04:39.722Z,109.23
2018-03-19T01:07:10.377Z,99.80
2018-03-19T01:09:39.700Z,89.53
2018-03-19T01:12:09.059Z,111.27
2018-03-19T01:14:38.763Z,96.87
2018-03-19T01:17:08.282Z,92.73
2018-03-19T01:37:42.830Z,91.97
2018-03-19T01:40:12.250Z,92.93
2018-03-19T01:42:41.766Z,76.70
2018-03-19T01:45:11.596Z,83.60
2018-03-19T01:47:41.024Z,83.90
2018-03-19T01:50:10.524Z,105.83
2018-03-19T01:52:56.485Z,108.73
2018-03-19T01:58:13.769Z,105.00
2018-03-19T02:00:45.495Z,109.50
2018-03-19T02:05:53.215Z,104.80
2018-03-19T02:08:22.728Z,104.13
2018-03-19T02:10:54.856Z,106.53
2018-03-19T02:13:40.269Z,104.53
2018-03-19T02:16:11.091Z,116.87
2018-03-19T02:18:41.989Z,114.80
2018-03-19T02:21:12.860Z,113.20
2018-03-19T02:23:42.962Z,103.37
2018-03-19T02:26:12.383Z,118.90
2018-03-19T02:28:41.966Z,119.57
2018-03-19T02:31:11.734Z,134.60
2018-03-19T02:33:41.591Z,124.50
2018-03-19T02:36:11.137Z,141.80
2018-03-19T02:38:40.917Z,133.13
2018-03-19T02:41:10.319Z,121.60
2018-03-19T02:43:39.939Z,128.63
2018-03-19T02:46:09.564Z,132.17
2018-03-19T02:48:39.480Z,187.47
2018-03-19T02:51:24.663Z,121.37
2018-03-19T02:53:55.876Z,121.63
2018-03-19T02:56:26.136Z,120.47
2018-03-19T02:58:57.183Z,132.37
2018-03-19T03:04:12.841Z,131.13
2018-03-19T03:06:45.047Z,124.70
2018-03-19T03:09:14.701Z,126.90
2018-03-19T03:11:44.106Z,113.43
2018-03-19T03:14:13.570Z,176.87
2018-03-19T03:16:48.734Z,122.37
2018-03-19T03:19:19.577Z,121.77
2018-03-19T03:21:49.952Z,123.57
2018-03-19T03:24:19.888Z,150.27
2018-03-19T03:26:49.521Z,163.43
2018-03-19T03:35:48.615Z,115.67
2018-03-19T03:38:39.028Z,120.77
2018-03-19T03:51:05.112Z,149.53
2018-03-19T03:53:38.470Z,136.03
2018-03-19T03:56:13.865Z,147.67
2018-03-19T04:07:22.143Z,148.97
2018-03-19T04:09:51.829Z,148.40
2018-03-19T04:15:26.651Z,132.40
2018-03-19T04:18:13.959Z,133.80
2018-03-19T04:21:15.932Z,115.53
2018-03-19T04:23:48.312Z,118.40
2018-03-19T04:26:20.775Z,125.53
2018-03-19T04:31:30.870Z,130.27
2018-03-19T04:36:43.342Z,147.10
2018-03-19T04:42:06.706Z,154.30
2018-03-19T04:44:36.127Z,152.07
2018-03-19T04:47:05.455Z,150.27
2018-03-19T04:49:34.878Z,271.40
2018-03-19T04:52:05.846Z,154.93
2018-03-19T04:54:35.253Z,133.27
2018-03-19T04:57:04.643Z,130.03
2018-03-19T05:00:09.713Z,134.20
2018-03-19T05:02:39.558Z,165.27
2018-03-19T05:05:09.174Z,237.67
2018-03-19T05:07:38.876Z,147.63
2018-03-19T05:10:08.583Z,208.63
2018-03-19T05:12:39.026Z,155.37
2018-03-19T05:15:08.755Z,183.80
2018-03-19T05:17:38.829Z,132.23
2018-03-19T05:20:08.369Z,129.10
2018-03-19T05:22:37.943Z,134.70
2018-03-19T05:25:08.522Z,127.23
2018-03-19T05:27:38.147Z,130.23
2018-03-19T05:30:07.678Z,110.67
2018-03-19T05:32:38.663Z,119.10
2018-03-19T05:38:30.517Z,111.00
2018-03-19T05:40:59.907Z,116.53
2018-03-19T05:43:29.420Z,103.37
2018-03-19T05:49:19.952Z,111.63
2018-03-19T05:51:49.396Z,110.17
2018-03-19T05:54:18.791Z,108.93
2018-03-19T05:56:48.172Z,109.73
2018-03-19T06:02:39.756Z,93.10
2018-03-19T06:05:09.450Z,101.73
2018-03-19T06:07:38.767Z,91.93
2018-03-19T06:10:08.321Z,90.10
2018-03-19T06:12:37.778Z,102.83
2018-03-19T06:15:07.217Z,101.77
2018-03-19T06:17:36.588Z,93.77
2018-03-19T06:20:10.167Z,91.60
2018-03-19T06:22:39.629Z,109.00
2018-03-19T06:25:08.961Z,237.77
2018-03-19T06:27:39.419Z,227.40
2018-03-19T06:30:08.909Z,358.27
2018-03-19T06:32:38.496Z,154.50
2018-03-19T06:35:08.802Z,147.20
2018-03-19T06:37:38.190Z,109.77
2018-03-19T06:40:07.614Z,92.93
2018-03-19T06:42:36.948Z,104.17
2018-03-19T06:45:06.421Z,111.07
2018-03-19T06:47:35.956Z,145.67
2018-03-19T06:50:05.455Z,204.97
2018-03-19T06:52:34.881Z,118.47
2018-03-19T06:55:04.204Z,126.93
2018-03-19T06:57:33.829Z,132.47
2018-03-19T07:00:03.213Z,178.23
2018-03-19T07:02:33.266Z,197.33
2018-03-19T07:05:03.585Z,202.73
2018-03-19T07:07:32.926Z,256.67
2018-03-19T07:10:02.363Z,188.20
2018-03-19T07:12:31.696Z,126.03
2018-03-19T07:15:01.099Z,196.13
2018-03-19T07:17:30.374Z,136.10
2018-03-19T07:19:59.814Z,130.83
2018-03-19T07:22:29.919Z,128.00
2018-03-19T07:24:59.301Z,119.10
2018-03-19T07:27:28.672Z,122.13
2018-03-19T07:29:58.096Z,121.63
2018-03-19T07:32:27.452Z,130.93
2018-03-19T07:34:56.967Z,120.83
2018-03-19T07:37:26.275Z,145.03
2018-03-19T07:39:55.674Z,134.73
2018-03-19T07:42:25.156Z,140.80
2018-03-19T07:44:54.617Z,127.67
2018-03-19T07:47:23.981Z,135.43
2018-03-19T07:49:54.690Z,145.07
2018-03-19T07:52:24.131Z,147.60
2018-03-19T07:54:53.421Z,168.87
2018-03-19T07:57:23.653Z,166.43
2018-03-19T07:59:55.409Z,164.50
2018-03-19T08:02:24.881Z,181.83
2018-03-19T08:04:54.177Z,217.10
2018-03-19T08:07:24.373Z,220.20
2018-03-19T08:09:53.765Z,209.80
2018-03-19T08:12:23.171Z,235.17
2018-03-19T08:14:52.514Z,249.77
2018-03-19T08:17:22.009Z,250.60
2018-03-19T08:19:51.278Z,226.90
2018-03-19T08:22:20.619Z,265.73
2018-03-19T08:24:50.112Z,222.63
2018-03-19T08:27:19.614Z,230.87
2018-03-19T08:29:49.101Z,188.30
2018-03-19T08:32:18.562Z,224.13
2018-03-19T08:34:48.046Z,164.10
2018-03-19T08:37:17.479Z,155.57
2018-03-19T08:39:46.959Z,145.03
2018-03-19T08:42:16.294Z,149.93
2018-03-19T08:44:45.673Z,149.57
2018-03-19T08:47:15.034Z,138.83
2018-03-19T08:49:44.446Z,136.67
2018-03-19T08:52:13.826Z,165.63
2018-03-19T08:54:43.292Z,142.87
2018-03-19T08:57:14.767Z,143.33
2018-03-19T08:59:44.198Z,130.90
2018-03-19T09:02:13.603Z,137.63
2018-03-19T09:04:42.936Z,159.53
2018-03-19T09:07:12.492Z,157.87
2018-03-19T09:09:41.787Z,147.77
2018-03-19T09:12:11.161Z,130.10
2018-03-19T09:14:41.323Z,139.33
2018-03-19T09:17:10.774Z,141.17
2018-03-19T09:19:40.103Z,144.90
2018-03-19T09:25:40.361Z,151.33
2018-03-19T09:28:09.730Z,143.23
2018-03-19T09:30:42.047Z,126.17
2018-03-19T09:33:11.440Z,118.80
2018-03-19T09:35:41.213Z,125.87
2018-03-19T09:38:12.968Z,122.60
2018-03-19T09:40:42.433Z,123.50
2018-03-19T09:43:12.976Z,130.67
2018-03-19T09:45:42.375Z,118.20
2018-03-19T09:48:11.729Z,119.53
2018-03-19T09:50:41.966Z,117.90
2018-03-19T09:53:11.316Z,122.40
2018-03-19T09:55:40.687Z,116.43
2018-03-19T09:58:10.887Z,118.73
2018-03-19T10:00:40.325Z,126.53
2018-03-19T10:03:09.634Z,118.20
2018-03-19T10:05:39.111Z,116.43
2018-03-19T10:08:08.389Z,122.57
2018-03-19T10:10:38.572Z,158.50
2018-03-19T10:13:07.935Z,140.10
2018-03-19T10:15:37.403Z,132.67
2018-03-19T10:18:06.748Z,121.30
2018-03-19T10:23:57.946Z,123.10
2018-03-19T10:26:27.368Z,115.13
2018-03-19T10:28:56.896Z,119.27
2018-03-19T10:31:26.486Z,120.43
2018-03-19T10:33:56.005Z,110.27
2018-03-19T10:36:25.421Z,110.40
2018-03-19T10:38:55.670Z,104.40
2018-03-19T10:41:25.224Z,112.67
2018-03-19T10:43:54.619Z,113.33
2018-03-19T10:46:24.177Z,111.23
2018-03-19T10:48:53.608Z,112.17
2018-03-19T10:51:23.218Z,112.30
2018-03-19T10:53:52.904Z,105.43
2018-03-19T10:56:22.902Z,105.77
2018-03-19T10:58:54.497Z,108.03
2018-03-19T11:01:29.225Z,107.17
2018-03-19T11:04:02.780Z,113.13
2018-03-19T11:06:38.535Z,122.10
2018-03-19T11:09:13.330Z,122.03
2018-03-19T11:11:42.851Z,139.37
2018-03-19T11:14:12.259Z,157.87
2018-03-19T11:16:41.822Z,158.33
2018-03-19T11:19:11.275Z,151.20
2018-03-19T11:21:40.837Z,241.00
2018-03-19T11:24:10.328Z,341.73
2018-03-19T11:26:40.251Z,347.10
2018-03-19T11:29:09.842Z,352.10
2018-03-19T11:31:39.293Z,324.47
2018-03-19T11:34:08.894Z,303.17
2018-03-19T11:36:38.531Z,309.20
2018-03-19T11:39:08.548Z,225.77
2018-03-19T11:41:39.111Z,259.17
2018-03-19T11:44:08.603Z,229.63
2018-03-19T11:46:38.211Z,217.10
2018-03-19T11:49:08.122Z,214.97
2018-03-19T11:51:37.669Z,187.23
2018-03-19T11:54:08.125Z,187.90
2018-03-19T11:56:37.690Z,222.57
2018-03-19T11:59:07.182Z,251.50
2018-03-19T12:01:37.679Z,258.97
2018-03-19T12:04:07.933Z,280.60
2018-03-19T12:06:37.571Z,273.30
2018-03-19T12:09:14.832Z,199.20
2018-03-19T12:11:44.404Z,180.43
2018-03-19T12:14:13.933Z,175.27
2018-03-19T12:16:43.442Z,154.00
2018-03-19T12:19:13.094Z,155.90
2018-03-19T12:21:42.556Z,152.17
2018-03-19T12:24:12.842Z,166.03
2018-03-19T12:26:42.356Z,148.07
2018-03-19T12:32:32.814Z,117.37
2018-03-19T12:35:02.229Z,120.97
2018-03-19T12:37:31.607Z,122.53
2018-03-19T12:40:01.198Z,114.13
2018-03-19T12:42:31.196Z,119.70
2018-03-19T12:45:00.799Z,106.47
2018-03-19T12:47:30.203Z,96.27
2018-03-19T12:50:00.315Z,103.80
2018-03-19T12:52:31.764Z,100.43
2018-03-19T12:57:47.067Z,89.00
2018-03-19T13:00:16.734Z,84.43
2018-03-19T13:02:47.376Z,80.60
2018-03-19T13:05:16.877Z,86.70
2018-03-19T13:07:46.263Z,69.63
2018-03-19T13:10:15.764Z,72.27
2018-03-19T13:12:45.321Z,88.43
2018-03-19T13:15:16.264Z,74.47
2018-03-19T13:17:45.763Z,75.93
2018-03-19T13:20:16.195Z,68.87
2018-03-19T13:22:47.920Z,70.27
2018-03-19T13:25:19.485Z,74.20
2018-03-19T13:27:50.666Z,70.77
2018-03-19T13:30:22.020Z,69.87
2018-03-19T13:32:52.372Z,76.30
2018-03-19T13:35:23.032Z,70.53
2018-03-19T13:37:53.009Z,62.83
2018-03-19T13:40:23.221Z,64.23
2018-03-19T13:42:54.477Z,64.27
2018-03-19T13:45:26.780Z,69.33
2018-03-19T13:47:57.177Z,77.27
2018-03-19T13:50:26.698Z,74.50
2018-03-19T13:52:56.114Z,74.97
2018-03-19T13:55:26.867Z,71.73
2018-03-19T13:57:57.218Z,74.10
2018-03-19T14:00:27.938Z,75.40
2018-03-19T14:02:57.545Z,72.27
2018-03-19T14:05:27.087Z,78.63
2018-03-19T14:08:00.434Z,71.20
2018-03-19T14:10:30.432Z,67.77
2018-03-19T14:13:00.773Z,65.73
2018-03-19T14:15:30.282Z,74.07
2018-03-19T14:17:59.787Z,86.43
2018-03-19T14:20:29.266Z,83.10
2018-03-19T14:22:58.901Z,81.43
2018-03-19T14:25:28.308Z,80.23
2018-03-19T14:27:59.428Z,77.10
2018-03-19T14:30:29.162Z,88.20
2018-03-19T14:32:58.798Z,76.93
2018-03-19T14:35:28.271Z,82.30
2018-03-19T14:37:57.971Z,82.73
2018-03-19T14:40:27.537Z,64.90
2018-03-19T14:42:57.729Z,75.50
2018-03-19T14:45:27.319Z,77.80
2018-03-19T14:47:56.802Z,44.30
2018-03-19T14:50:26.423Z,49.43
2018-03-19T14:52:57.454Z,54.73
2018-03-19T14:55:26.860Z,49.73
2018-03-19T14:58:00.555Z,50.30
2018-03-19T15:00:30.017Z,58.03
2018-03-19T15:02:59.591Z,34.60
2018-03-19T15:05:29.014Z,34.63
2018-03-19T15:07:58.500Z,30.00
2018-03-19T15:10:27.894Z,42.93
2018-03-19T15:12:57.349Z,31.47
2018-03-19T15:15:26.995Z,27.47
2018-03-19T15:17:56.403Z,30.20
2018-03-19T15:20:25.968Z,36.73
2018-03-19T15:22:56.210Z,36.37
2018-03-19T15:25:25.639Z,32.67
2018-03-19T15:27:55.139Z,35.70
2018-03-19T15:30:24.660Z,35.10
2018-03-19T15:32:54.037Z,33.17
2018-03-19T15:35:23.923Z,34.17
2018-03-19T15:37:54.186Z,39.70
2018-03-19T15:40:23.651Z,43.20
2018-03-19T15:42:53.260Z,31.43
2018-03-19T15:48:44.130Z,44.27
2018-03-19T15:51:13.947Z,40.93
2018-03-19T15:53:43.322Z,33.63
2018-03-19T15:59:36.595Z,55.00
2018-03-19T16:02:05.950Z,38.93
2018-03-19T16:04:35.351Z,34.60
2018-03-19T16:07:04.696Z,28.90
2018-03-19T16:09:35.245Z,30.93
2018-03-19T16:12:07.013Z,31.77
2018-03-19T16:14:36.929Z,30.70
2018-03-19T16:17:06.281Z,26.73
2018-03-19T16:19:35.552Z,26.53
2018-03-19T16:22:04.856Z,25.77
2018-03-19T16:24:34.302Z,24.60
2018-03-19T16:27:04.770Z,24.33
2018-03-19T16:29:34.085Z,25.73
2018-03-19T16:32:04.465Z,30.60
2018-03-19T16:37:55.297Z,33.17
2018-03-19T16:40:24.727Z,35.13
2018-03-19T16:42:54.039Z,28.83
2018-03-19T16:45:23.612Z,30.07
2018-03-19T16:47:53.029Z,28.60
2018-03-19T16:50:22.470Z,30.13
2018-03-19T16:52:52.713Z,33.50
2018-03-19T16:55:22.209Z,28.97
2018-03-19T16:57:51.561Z,27.87
2018-03-19T17:00:21.090Z,29.27
2018-03-19T17:02:50.437Z,27.63
2018-03-19T17:05:20.629Z,30.37
2018-03-19T17:07:51.160Z,37.57
2018-03-19T17:10:21.697Z,27.80
2018-03-19T17:12:53.059Z,49.15
2018-03-19T17:15:22.646Z,32.50
2018-03-19T17:17:53.251Z,39.65
2018-03-19T17:20:22.758Z,51.72
2018-03-19T17:22:52.769Z,34.53
2018-03-19T17:25:24.418Z,29.52
2018-03-19T17:27:53.877Z,47.28
2018-03-19T17:30:24.360Z,33.58
2018-03-19T17:32:53.777Z,79.10
2018-03-19T17:35:23.199Z,36.05
2018-03-19T17:37:53.434Z,42.67
2018-03-19T17:40:23.053Z,27.83
2018-03-19T17:42:52.500Z,40.90
2018-03-19T17:45:21.976Z,32.67
2018-03-19T17:47:54.046Z,29.70
2018-03-19T17:50:23.564Z,35.03
2018-03-19T17:52:53.040Z,34.70
2018-03-19T17:55:22.385Z,38.67
2018-03-19T17:57:51.862Z,32.93
2018-03-19T18:00:21.983Z,32.57
2018-03-19T18:02:51.429Z,33.00
2018-03-19T18:05:22.089Z,36.17
2018-03-19T18:07:51.686Z,31.80
2018-03-19T18:10:22.004Z,29.80
2018-03-19T18:12:51.672Z,39.03
2018-03-19T18:15:21.937Z,43.95
2018-03-19T18:17:51.460Z,60.92
2018-03-19T18:20:21.031Z,48.47
2018-03-19T18:22:50.673Z,60.50
2018-03-19T18:25:20.106Z,44.67
2018-03-19T18:27:50.375Z,34.67
2018-03-19T18:30:19.766Z,67.72
2018-03-19T18:32:49.219Z,58.10
2018-03-19T18:35:18.866Z,36.95
2018-03-19T18:37:48.608Z,34.40
2018-03-19T18:40:18.082Z,33.08
2018-03-19T18:42:47.474Z,33.20
2018-03-19T18:45:16.910Z,36.40
2018-03-19T18:47:46.341Z,34.83
2018-03-19T18:50:15.917Z,53.70
2018-03-19T18:52:45.357Z,41.58
2018-03-19T18:55:14.718Z,41.97
2018-03-19T18:57:44.325Z,40.80
2018-03-19T19:00:14.087Z,40.50
2018-03-19T19:02:43.554Z,45.80
2018-03-19T19:05:13.071Z,46.40
2018-03-19T19:07:42.530Z,45.35
2018-03-19T19:10:11.887Z,41.45
2018-03-19T19:12:44.065Z,35.38
2018-03-19T19:15:13.598Z,48.22
2018-03-19T19:17:43.041Z,39.63
2018-03-19T19:20:44.544Z,51.90
2018-03-19T19:23:16.686Z,42.40
2018-03-19T19:25:46.216Z,57.70
2018-03-19T19:28:22.855Z,39.70
2018-03-19T19:30:52.699Z,63.00
2018-03-19T19:33:26.406Z,78.07
2018-03-19T19:42:00.720Z,43.13
2018-03-19T19:44:32.086Z,54.87
2018-03-19T19:47:01.772Z,50.77
2018-03-19T19:49:31.089Z,41.47
2018-03-19T19:52:00.978Z,51.07
2018-03-19T19:54:30.621Z,39.17
2018-03-19T19:56:59.915Z,50.50
2018-03-19T19:59:29.425Z,43.67
2018-03-19T20:02:01.776Z,45.67
2018-03-19T20:04:32.784Z,52.53
2018-03-19T20:07:02.408Z,47.00
2018-03-19T20:09:36.445Z,48.37
2018-03-19T20:12:05.875Z,46.27
2018-03-19T20:14:44.578Z,80.57
2018-03-19T20:17:24.678Z,51.27
2018-03-19T20:19:54.169Z,49.42
2018-03-19T20:22:44.777Z,42.38
2018-03-19T20:25:33.224Z,68.27
2018-03-19T20:28:23.471Z,68.63
2018-03-19T20:31:00.897Z,67.27
2018-03-19T20:33:33.332Z,53.10
2018-03-19T20:36:20.668Z,54.40
2018-03-19T20:38:52.708Z,60.60
2018-03-19T20:41:37.006Z,66.63
2018-03-19T20:44:06.849Z,65.97
2018-03-19T20:46:40.139Z,73.93
2018-03-19T20:49:29.958Z,65.60
2018-03-19T20:55:32.577Z,61.63
2018-03-19T20:58:06.839Z,60.80
2018-03-19T21:00:41.854Z,72.37
2018-03-19T21:03:11.379Z,61.73
2018-03-19T21:05:42.079Z,79.83
2018-03-19T21:08:12.889Z,56.77
2018-03-19T21:10:42.425Z,61.70
2018-03-19T21:13:13.441Z,63.20
2018-03-19T21:15:42.960Z,98.20
2018-03-19T21:18:13.406Z,61.73
2018-03-19T21:20:42.945Z,64.37
2018-03-19T21:23:12.507Z,60.97
2018-03-19T21:25:42.014Z,57.93
2018-03-19T21:28:11.727Z,61.60
2018-03-19T21:30:41.186Z,64.70
2018-03-19T21:33:10.643Z,66.73
2018-03-19T21:35:40.196Z,63.13
2018-03-19T21:38:11.298Z,31.57
2018-03-19T21:40:41.469Z,28.23
2018-03-19T21:43:11.156Z,33.43
2018-03-19T21:45:41.780Z,30.33
2018-03-19T21:48:13.086Z,19.10
2018-03-19T21:50:42.556Z,25.20
2018-03-19T21:53:12.285Z,33.47
2018-03-19T21:55:41.918Z,47.03
2018-03-19T21:58:11.384Z,34.10
2018-03-19T22:00:40.882Z,59.53
2018-03-19T22:03:10.396Z,83.47
2018-03-19T22:05:39.936Z,92.00
2018-03-19T22:08:09.473Z,91.57
2018-03-19T22:10:41.145Z,106.03
2018-03-19T22:13:12.604Z,81.07
2018-03-19T22:15:42.368Z,61.33
2018-03-19T22:18:11.813Z,64.00
2018-03-19T22:20:45.609Z,86.20
2018-03-19T22:23:15.178Z,66.33
2018-03-19T22:29:05.468Z,71.83
2018-03-19T22:31:35.128Z,66.63
2018-03-19T22:34:04.756Z,80.50
2018-03-19T22:36:34.845Z,70.00
2018-03-19T22:39:04.505Z,84.57
2018-03-19T22:41:34.017Z,106.93
2018-03-19T22:44:03.681Z,96.43
2018-03-19T22:46:33.190Z,83.27
2018-03-19T22:49:02.531Z,71.20
2018-03-19T22:51:32.657Z,87.60
2018-03-19T22:54:02.216Z,86.93
2018-03-19T22:56:32.630Z,75.27
2018-03-19T22:59:01.979Z,68.30
2018-03-19T23:01:33.264Z,86.60
2018-03-19T23:04:02.780Z,93.03
2018-03-19T23:06:32.279Z,100.53
2018-03-19T23:09:03.482Z,76.53
2018-03-19T23:11:32.981Z,88.83
2018-03-19T23:14:02.330Z,71.53
2018-03-19T23:16:32.052Z,82.07
2018-03-19T23:19:02.574Z,72.67
2018-03-19T23:24:12.096Z,74.13
2018-03-19T23:26:44.980Z,79.17
2018-03-19T23:29:14.517Z,70.43
2018-03-19T23:31:51.680Z,79.73
2018-03-19T23:34:21.330Z,81.20
2018-03-19T23:39:24.216Z,84.37
2018-03-19T23:41:53.552Z,98.53
2018-03-19T23:44:23.248Z,84.03
2018-03-19T23:46:52.738Z,78.87
2018-03-19T23:49:22.131Z,78.30
2018-03-19T23:51:51.598Z,88.93
2018-03-19T23:54:33.022Z,92.33
2018-03-19T23:57:02.417Z,84.33
2018-03-19T23:59:32.486Z,97.10
